Time;durP1;ratioP1;P1;durP2;ratioP2;P2;SDS_P1;SDS_P2;PMS_P1;PMS_P2;Temp;Humidity;BMP_temperature;BMP_pressure;BME280_temperature;BME280_humidity;BME280_pressure;Samples;Min_cycle;Max_cycle;Signal;HPM_P1;HPM_P2
2023/06/12 00:01:12;;;;;;;6.50;2.40;;;19.30;99.90;;;;;;5074052;28;20476;-55
2023/06/12 00:03:40;;;;;;;4.38;2.47;;;19.30;99.90;;;;;;5073861;28;20029;-51
2023/06/12 00:06:09;;;;;;;2.97;2.20;;;19.20;99.90;;;;;;5073388;28;20033;-51
2023/06/12 00:08:36;;;;;;;3.65;2.28;;;19.10;99.90;;;;;;5074148;28;20042;-51
2023/06/12 00:11:08;;;;;;;2.28;1.80;;;19.00;99.90;;;;;;5054693;28;20060;-53
2023/06/12 00:13:38;;;;;;;4.72;2.85;;;19.00;99.90;;;;;;5074057;28;20021;-58
2023/06/12 00:16:04;;;;;;;3.92;2.33;;;18.90;99.90;;;;;;5073475;28;20104;-52
2023/06/12 00:18:30;;;;;;;3.03;2.17;;;18.90;99.90;;;;;;5073402;28;20059;-59
2023/06/12 00:20:56;;;;;;;4.20;2.13;;;18.90;99.90;;;;;;5073378;28;20024;-55
2023/06/12 00:23:22;;;;;;;3.33;2.47;;;18.90;99.90;;;;;;5071351;28;20040;-50
2023/06/12 00:25:47;;;;;;;4.35;2.42;;;18.90;99.90;;;;;;5073267;28;20055;-49
2023/06/12 00:28:13;;;;;;;4.03;2.50;;;19.00;99.90;;;;;;5071104;28;20036;-50
2023/06/12 00:30:39;;;;;;;4.60;2.78;;;19.10;99.90;;;;;;5071052;28;20089;-53
2023/06/12 00:33:05;;;;;;;4.63;2.38;;;19.00;99.90;;;;;;5073649;28;20108;-51
2023/06/12 00:35:30;;;;;;;3.88;2.10;;;19.00;99.90;;;;;;5070761;28;20033;-53
2023/06/12 00:37:56;;;;;;;3.60;2.75;;;19.00;99.90;;;;;;5072975;28;20020;-58
2023/06/12 00:40:22;;;;;;;5.90;2.53;;;19.00;99.90;;;;;;5073239;28;20105;-50
2023/06/12 00:42:50;;;;;;;6.07;2.88;;;19.00;99.90;;;;;;5071105;28;20036;-50
2023/06/12 00:45:23;;;;;;;3.78;2.55;;;19.00;99.90;;;;;;5072830;28;20487;-51
2023/06/12 00:47:55;;;;;;;3.58;2.10;;;18.90;99.90;;;;;;5073110;28;20099;-49
2023/06/12 00:50:28;;;;;;;4.55;2.30;;;19.00;99.90;;;;;;5072878;28;20039;-50
2023/06/12 00:52:58;;;;;;;4.65;2.60;;;19.10;99.90;;;;;;5072814;28;20531;-56
2023/06/12 00:55:24;;;;;;;3.65;2.60;;;19.20;99.90;;;;;;5071878;28;20029;-53
2023/06/12 00:57:51;;;;;;;7.80;2.47;;;19.00;99.90;;;;;;5072791;28;20028;-56
2023/06/12 01:00:18;;;;;;;5.18;2.58;;;19.10;99.90;;;;;;5072584;28;20543;-56
2023/06/12 01:02:54;;;;;;;3.40;2.40;;;19.10;99.90;;;;;;5072764;28;20107;-59
2023/06/12 01:05:33;;;;;;;3.45;2.30;;;19.20;99.90;;;;;;5072771;28;20692;-52
2023/06/12 01:08:01;;;;;;;4.88;2.60;;;19.00;99.90;;;;;;5053609;28;20032;-57
2023/06/12 01:10:45;;;;;;;4.13;2.55;;;18.90;99.90;;;;;;5072614;28;20547;-50
2023/06/12 01:13:12;;;;;;;3.95;2.17;;;19.00;99.90;;;;;;5072546;28;20356;-57
2023/06/12 01:15:38;;;;;;;4.82;3.00;;;19.00;99.90;;;;;;5072954;28;20028;-53
2023/06/12 01:18:06;;;;;;;5.40;2.45;;;18.80;99.90;;;;;;5072405;28;20103;-58
2023/06/12 01:20:34;;;;;;;7.68;2.83;;;18.80;99.90;;;;;;5072424;28;20040;-58
2023/06/12 01:23:13;;;;;;;4.05;2.45;;;18.70;99.90;;;;;;5072821;28;20052;-56
2023/06/12 01:26:18;;;;;;;6.18;2.40;;;18.70;99.90;;;;;;5072443;28;20102;-59
2023/06/12 01:29:05;;;;;;;6.15;2.85;;;18.80;99.90;;;;;;5072545;28;20041;-53
2023/06/12 01:31:56;;;;;;;3.03;2.20;;;18.90;99.90;;;;;;5072430;28;20033;-56
2023/06/12 01:34:29;;;;;;;3.67;2.30;;;18.70;99.90;;;;;;5072373;28;20043;-47
2023/06/12 01:37:45;;;;;;;6.60;2.85;;;18.80;99.90;;;;;;5072268;28;20029;-53
2023/06/12 01:40:13;;;;;;;5.88;2.60;;;18.80;99.90;;;;;;5000157;28;20513;-57
2023/06/12 01:42:40;;;;;;;4.60;2.38;;;18.70;99.90;;;;;;4993455;28;20045;-56
2023/06/12 01:45:06;;;;;;;4.93;2.35;;;18.80;99.90;;;;;;5010226;28;20044;-57
2023/06/12 01:47:32;;;;;;;4.10;2.45;;;18.80;99.90;;;;;;4976962;28;20045;-55
2023/06/12 01:49:59;;;;;;;4.47;2.40;;;18.80;99.90;;;;;;4960830;28;20706;-52
2023/06/12 01:52:25;;;;;;;5.93;2.58;;;18.80;99.90;;;;;;5010094;28;20386;-60
2023/06/12 01:54:50;;;;;;;5.70;2.83;;;18.70;99.90;;;;;;4993308;28;20068;-53
2023/06/12 01:57:19;;;;;;;4.07;2.63;;;18.80;99.90;;;;;;5009601;28;20602;-54
2023/06/12 01:59:46;;;;;;;6.10;3.00;;;18.90;99.90;;;;;;5009927;28;20521;-57
2023/06/12 02:02:11;;;;;;;12.43;2.80;;;18.80;99.90;;;;;;5010110;28;20453;-61
2023/06/12 02:04:37;;;;;;;6.10;2.80;;;18.80;99.90;;;;;;4993292;28;20034;-54
2023/06/12 02:07:04;;;;;;;4.25;2.58;;;18.80;99.90;;;;;;5010537;28;20042;-53
2023/06/12 02:09:29;;;;;;;6.93;2.45;;;18.80;99.90;;;;;;5013745;28;20038;-53
2023/06/12 02:11:55;;;;;;;5.50;2.88;;;18.80;99.90;;;;;;4964631;28;20030;-53
2023/06/12 02:14:23;;;;;;;3.13;2.28;;;18.70;99.90;;;;;;5013990;28;20110;-55
2023/06/12 02:16:53;;;;;;;7.20;2.70;;;18.70;99.90;;;;;;5059732;28;20460;-57
2023/06/12 02:19:22;;;;;;;5.88;2.58;;;18.70;99.90;;;;;;5075622;28;20039;-54
2023/06/12 02:21:49;;;;;;;4.20;2.47;;;18.80;99.90;;;;;;5075965;28;20033;-51
2023/06/12 02:24:15;;;;;;;5.82;2.40;;;18.80;99.90;;;;;;5075899;28;20033;-52
2023/06/12 02:26:41;;;;;;;3.53;2.50;;;18.90;99.90;;;;;;5075296;28;20119;-51
2023/06/12 02:29:12;;;;;;;6.18;2.70;;;19.00;99.90;;;;;;5073429;28;20078;-51
2023/06/12 02:31:39;;;;;;;3.97;2.72;;;19.00;99.90;;;;;;5056489;28;20036;-50
2023/06/12 02:34:04;;;;;;;6.53;2.70;;;19.10;99.90;;;;;;5056545;28;20594;-60
2023/06/12 02:36:30;;;;;;;6.60;2.85;;;19.10;99.90;;;;;;5075358;28;20029;-54
2023/06/12 02:38:57;;;;;;;4.15;2.40;;;19.10;99.90;;;;;;5073370;28;20382;-47
2023/06/12 02:41:23;;;;;;;3.53;2.30;;;19.20;99.90;;;;;;5075367;28;20054;-53
2023/06/12 02:43:49;;;;;;;3.90;2.25;;;19.20;99.90;;;;;;5075273;28;20020;-50
2023/06/12 02:46:15;;;;;;;2.97;2.20;;;19.30;99.90;;;;;;5074963;28;20029;-58
2023/06/12 02:48:40;;;;;;;3.75;2.55;;;19.10;99.90;;;;;;5075043;28;20021;-51
2023/06/12 02:51:06;;;;;;;3.72;2.40;;;19.10;99.90;;;;;;5074961;28;20025;-59
2023/06/12 02:53:32;;;;;;;3.90;2.45;;;19.10;99.90;;;;;;5075317;28;20035;-56
2023/06/12 02:55:57;;;;;;;4.00;2.47;;;19.10;99.90;;;;;;5074997;28;20076;-59
2023/06/12 02:58:23;;;;;;;3.92;2.58;;;19.20;99.90;;;;;;5075118;28;20024;-50
2023/06/12 03:00:49;;;;;;;4.07;1.95;;;19.30;99.90;;;;;;5074977;28;20029;-53
2023/06/12 03:03:15;;;;;;;4.28;2.20;;;19.40;99.90;;;;;;5022535;28;20041;-51
2023/06/12 03:05:43;;;;;;;4.72;2.33;;;19.40;99.90;;;;;;5074801;28;20547;-50
2023/06/12 03:08:09;;;;;;;3.60;2.50;;;19.30;99.90;;;;;;5075011;28;20036;-58
2023/06/12 03:10:35;;;;;;;4.22;2.40;;;19.40;99.90;;;;;;5074837;28;20391;-50
2023/06/12 03:13:01;;;;;;;6.28;2.38;;;19.40;99.90;;;;;;5074890;28;20427;-46
2023/06/12 03:15:27;;;;;;;3.33;2.25;;;19.40;99.90;;;;;;5075112;28;20023;-50
2023/06/12 03:17:53;;;;;;;3.70;2.75;;;19.40;99.90;;;;;;5074259;28;20414;-57
2023/06/12 03:20:18;;;;;;;5.55;2.47;;;19.30;99.90;;;;;;5072471;28;20090;-56
2023/06/12 03:22:44;;;;;;;6.93;2.42;;;19.30;99.90;;;;;;5074443;28;20020;-50
2023/06/12 03:25:10;;;;;;;4.28;2.10;;;19.30;99.90;;;;;;5074631;28;20052;-54
2023/06/12 03:27:37;;;;;;;3.60;2.50;;;19.20;99.90;;;;;;5039000;28;20048;-58
2023/06/12 03:30:03;;;;;;;3.42;2.25;;;19.30;99.90;;;;;;5074597;28;20071;-49
2023/06/12 03:32:30;;;;;;;2.78;1.80;;;19.30;99.90;;;;;;5038857;28;20037;-53
2023/06/12 03:34:55;;;;;;;4.38;2.58;;;19.40;99.90;;;;;;5074170;28;20448;-56
2023/06/12 03:37:22;;;;;;;5.80;2.10;;;19.40;99.90;;;;;;5055383;28;20068;-54
2023/06/12 03:39:47;;;;;;;3.97;1.98;;;19.40;99.90;;;;;;5055550;28;20051;-57
2023/06/12 03:42:13;;;;;;;5.05;2.22;;;19.20;99.90;;;;;;5074281;28;20380;-53
2023/06/12 03:44:39;;;;;;;2.78;1.80;;;19.20;99.90;;;;;;5074240;28;20028;-53
2023/06/12 03:47:05;;;;;;;4.30;2.15;;;19.30;99.90;;;;;;5073832;28;20075;-49
2023/06/12 03:49:31;;;;;;;3.17;2.40;;;19.30;99.90;;;;;;5074730;28;20093;-53
2023/06/12 03:51:56;;;;;;;4.05;2.00;;;19.30;99.90;;;;;;5088655;28;20041;-59
2023/06/12 03:54:22;;;;;;;5.22;2.10;;;19.40;99.90;;;;;;5073787;28;20356;-55
2023/06/12 03:56:48;;;;;;;3.58;2.00;;;19.50;99.90;;;;;;5073569;28;20052;-57
2023/06/12 03:59:14;;;;;;;3.10;2.10;;;19.60;99.90;;;;;;5022068;28;20040;-56
2023/06/12 04:01:42;;;;;;;6.40;1.70;;;19.60;99.90;;;;;;5073579;28;20115;-55
2023/06/12 04:04:09;;;;;;;3.58;2.40;;;19.50;99.90;;;;;;5055213;28;20044;-55
2023/06/12 04:06:40;;;;;;;2.13;1.70;;;19.40;99.90;;;;;;5073593;28;20473;-48
2023/06/12 04:09:12;;;;;;;4.45;2.50;;;19.30;99.90;;;;;;5073809;28;20036;-53
2023/06/12 04:11:39;;;;;;;4.13;1.95;;;19.30;99.90;;;;;;5054542;28;20053;-56
2023/06/12 04:14:05;;;;;;;2.20;1.92;;;19.40;99.90;;;;;;5073410;28;20028;-53
2023/06/12 04:16:32;;;;;;;4.50;2.03;;;19.50;99.90;;;;;;5071758;28;20468;-57
2023/06/12 04:19:02;;;;;;;3.10;1.98;;;19.50;99.90;;;;;;5072183;28;20459;-51
2023/06/12 04:21:27;;;;;;;6.38;2.13;;;19.50;99.90;;;;;;5070609;28;20040;-57
2023/06/12 04:23:53;;;;;;;2.83;2.20;;;19.40;99.90;;;;;;5072680;28;20025;-53
2023/06/12 04:26:20;;;;;;;4.30;1.95;;;19.50;99.90;;;;;;5072280;28;20472;-53
2023/06/12 04:28:47;;;;;;;2.83;1.67;;;19.40;99.90;;;;;;5073281;28;20028;-56
2023/06/12 04:31:16;;;;;;;4.90;2.33;;;19.30;99.90;;;;;;5071057;28;20039;-56
2023/06/12 04:33:42;;;;;;;5.57;1.80;;;19.30;99.90;;;;;;5072518;28;20361;-55
2023/06/12 04:36:13;;;;;;;4.43;1.75;;;19.30;99.90;;;;;;5040922;28;20063;-53
2023/06/12 04:38:39;;;;;;;3.75;2.05;;;19.30;99.90;;;;;;5048928;28;20033;-58
2023/06/12 04:41:05;;;;;;;2.78;2.00;;;19.40;99.90;;;;;;5072149;28;20020;-53
2023/06/12 04:43:32;;;;;;;3.28;2.05;;;19.50;99.90;;;;;;5072540;28;20036;-57
2023/06/12 04:45:57;;;;;;;4.45;1.80;;;19.60;99.90;;;;;;5069417;28;20059;-51
2023/06/12 04:48:23;;;;;;;8.57;3.53;;;19.60;99.90;;;;;;5072356;28;20423;-53
2023/06/12 04:50:54;;;;;;;3.47;1.95;;;19.60;99.90;;;;;;5071949;28;20025;-51
2023/06/12 04:53:27;;;;;;;2.20;1.70;;;19.40;99.90;;;;;;5072350;28;20257;-56
2023/06/12 04:55:54;;;;;;;4.05;2.22;;;19.30;99.90;;;;;;5071992;28;20056;-56
2023/06/12 04:58:20;;;;;;;3.60;1.60;;;19.30;99.90;;;;;;5053090;28;20360;-52
2023/06/12 05:00:49;;;;;;;2.33;1.63;;;19.30;99.90;;;;;;5070830;28;20048;-55
2023/06/12 05:03:16;;;;;;;2.40;1.80;;;19.30;99.90;;;;;;5072703;28;20051;-57
2023/06/12 05:05:45;;;;;;;5.30;1.92;;;19.20;99.90;;;;;;5072187;28;20032;-56
2023/06/12 05:08:11;;;;;;;4.95;2.47;;;19.00;99.90;;;;;;5072257;28;20115;-53
2023/06/12 05:10:37;;;;;;;2.42;1.90;;;19.00;99.90;;;;;;5053737;28;20068;-57
2023/06/12 05:13:03;;;;;;;3.67;1.48;;;19.10;99.90;;;;;;5072062;28;20055;-51
2023/06/12 05:15:29;;;;;;;3.90;1.70;;;19.10;99.90;;;;;;5071482;28;20111;-50
2023/06/12 05:17:55;;;;;;;6.68;1.80;;;19.00;99.90;;;;;;5071136;28;20032;-52
2023/06/12 05:20:21;;;;;;;6.68;1.73;;;19.00;99.90;;;;;;5071546;28;20035;-56
2023/06/12 05:22:47;;;;;;;3.15;1.90;;;18.80;99.90;;;;;;5070206;28;20090;-53
2023/06/12 05:25:13;;;;;;;4.25;1.65;;;18.70;99.90;;;;;;5070907;28;20028;-54
2023/06/12 05:27:39;;;;;;;2.90;1.60;;;18.80;99.90;;;;;;5071549;28;20037;-53
2023/06/12 05:30:07;;;;;;;1.83;1.58;;;18.70;99.90;;;;;;5082625;28;20029;-55
2023/06/12 05:32:34;;;;;;;2.20;1.42;;;18.40;99.90;;;;;;5044781;28;20039;-53
2023/06/12 05:35:00;;;;;;;1.95;1.67;;;18.40;99.90;;;;;;5071125;28;20029;-53
2023/06/12 05:37:26;;;;;;;3.22;1.70;;;18.40;99.90;;;;;;5068962;28;20135;-51
2023/06/12 05:39:53;;;;;;;2.38;1.50;;;18.60;99.90;;;;;;5072274;28;20531;-54
2023/06/12 05:42:19;;;;;;;4.03;1.70;;;18.60;99.90;;;;;;5071458;28;20543;-53
2023/06/12 05:44:46;;;;;;;3.95;1.50;;;18.90;99.90;;;;;;5072207;28;20028;-56
2023/06/12 05:47:12;;;;;;;1.52;1.17;;;18.60;99.90;;;;;;5036662;28;20407;-52
2023/06/12 05:49:38;;;;;;;2.40;1.48;;;18.50;99.90;;;;;;5072505;28;20115;-50
2023/06/12 05:52:07;;;;;;;1.88;1.10;;;18.40;99.90;;;;;;5072220;28;20096;-51
2023/06/12 05:54:35;;;;;;;2.65;1.55;;;18.00;99.90;;;;;;5072396;28;20024;-49
2023/06/12 05:57:02;;;;;;;2.38;1.40;;;17.90;99.90;;;;;;5071945;28;20056;-56
2023/06/12 05:59:28;;;;;;;3.17;1.20;;;18.10;99.90;;;;;;5072142;28;20060;-53
2023/06/12 06:01:57;;;;;;;1.63;1.20;;;18.10;99.90;;;;;;5053348;28;20496;-55
2023/06/12 06:04:22;;;;;;;1.55;1.20;;;18.20;99.90;;;;;;5071727;28;20021;-56
2023/06/12 06:06:50;;;;;;;2.55;1.45;;;18.20;99.90;;;;;;5069734;28;20575;-57
2023/06/12 06:09:15;;;;;;;1.50;1.40;;;18.20;99.90;;;;;;5069772;28;20052;-52
2023/06/12 06:11:41;;;;;;;2.30;1.45;;;18.30;99.90;;;;;;5072061;28;20025;-51
2023/06/12 06:14:07;;;;;;;2.15;1.40;;;18.40;99.90;;;;;;5071910;28;20711;-54
2023/06/12 06:16:33;;;;;;;2.80;1.60;;;18.00;99.90;;;;;;5071918;28;20381;-57
2023/06/12 06:18:59;;;;;;;1.70;1.20;;;18.10;99.90;;;;;;5071317;28;20376;-55
2023/06/12 06:21:24;;;;;;;2.17;1.52;;;18.30;99.90;;;;;;5047040;28;20033;-54
2023/06/12 06:23:50;;;;;;;2.55;1.67;;;18.20;99.90;;;;;;5032974;28;20047;-56
2023/06/12 06:26:16;;;;;;;1.52;1.10;;;18.40;99.90;;;;;;5061767;28;20032;-56
2023/06/12 06:28:42;;;;;;;1.73;1.48;;;18.40;99.90;;;;;;5071050;28;20031;-53
2023/06/12 06:31:07;;;;;;;1.63;1.20;;;18.40;99.90;;;;;;5066456;28;20037;-53
2023/06/12 06:33:33;;;;;;;2.00;1.20;;;18.70;99.90;;;;;;5049505;28;20503;-53
2023/06/12 06:35:59;;;;;;;2.20;1.33;;;18.80;99.90;;;;;;5051577;28;20499;-53
2023/06/12 06:38:25;;;;;;;3.78;1.60;;;19.10;99.90;;;;;;5051659;28;20029;-55
2023/06/12 06:40:51;;;;;;;2.92;1.75;;;19.10;99.90;;;;;;5051622;28;20029;-50
2023/06/12 06:43:17;;;;;;;2.00;1.38;;;19.20;99.90;;;;;;5051663;28;20067;-50
2023/06/12 06:45:43;;;;;;;4.63;1.50;;;19.10;99.90;;;;;;5068246;28;20036;-52
2023/06/12 06:48:11;;;;;;;4.35;1.83;;;19.20;99.90;;;;;;5071313;28;20024;-51
2023/06/12 06:50:37;;;;;;;1.98;1.48;;;19.30;99.90;;;;;;5036083;28;20043;-55
2023/06/12 06:53:03;;;;;;;12.68;5.55;;;19.40;99.90;;;;;;5051727;28;20648;-54
2023/06/12 06:55:29;;;;;;;1.88;1.67;;;19.40;99.90;;;;;;5054712;28;20032;-50
2023/06/12 06:57:55;;;;;;;3.72;1.70;;;19.40;99.90;;;;;;5055083;28;20456;-50
2023/06/12 07:00:22;;;;;;;2.53;1.58;;;19.40;99.90;;;;;;5065005;28;20435;-49
2023/06/12 07:02:48;;;;;;;2.90;1.92;;;19.40;99.90;;;;;;5074390;28;20101;-52
2023/06/12 07:05:15;;;;;;;2.05;1.30;;;19.30;99.90;;;;;;5074385;28;20020;-53
2023/06/12 07:07:44;;;;;;;2.08;1.23;;;19.30;99.90;;;;;;5086192;28;20041;-50
2023/06/12 07:10:10;;;;;;;2.03;1.55;;;19.20;99.90;;;;;;5074464;28;20510;-52
2023/06/12 07:12:36;;;;;;;1.73;1.48;;;19.20;99.90;;;;;;5072606;28;20033;-51
2023/06/12 07:15:03;;;;;;;2.03;1.25;;;19.20;99.90;;;;;;5074620;28;20029;-50
2023/06/12 07:17:29;;;;;;;2.75;1.67;;;19.10;99.90;;;;;;5074770;28;20371;-52
2023/06/12 07:19:55;;;;;;;3.38;1.95;;;19.10;99.90;;;;;;5074609;28;20032;-52
2023/06/12 07:22:21;;;;;;;2.00;1.65;;;19.00;99.90;;;;;;5074573;28;20060;-52
2023/06/12 07:24:46;;;;;;;4.38;2.22;;;18.40;99.90;;;;;;5074870;28;20032;-53
2023/06/12 07:27:12;;;;;;;3.15;2.25;;;18.40;99.90;;;;;;5072659;28;20036;-53
2023/06/12 07:29:38;;;;;;;2.67;1.88;;;18.10;99.90;;;;;;5074422;28;20059;-49
2023/06/12 07:32:04;;;;;;;3.88;2.03;;;18.00;99.90;;;;;;5055801;28;20037;-52
2023/06/12 07:34:30;;;;;;;3.88;2.00;;;18.10;99.90;;;;;;5072470;28;20087;-51
2023/06/12 07:36:58;;;;;;;2.55;1.95;;;18.00;99.90;;;;;;5055494;28;20047;-51
2023/06/12 07:39:24;;;;;;;2.47;2.05;;;17.90;99.90;;;;;;5074522;28;20028;-52
2023/06/12 07:41:50;;;;;;;2.70;2.20;;;;;;;;;;5074126;28;20099;-53
2023/06/12 07:44:16;;;;;;;2.30;1.70;;;17.80;99.90;;;;;;5055357;28;20063;-53
2023/06/12 07:46:43;;;;;;;3.30;2.30;;;17.90;99.90;;;;;;5074014;28;20033;-49
2023/06/12 07:49:09;;;;;;;4.07;2.42;;;17.90;99.90;;;;;;5074132;28;20032;-52
2023/06/12 07:51:35;;;;;;;2.80;2.05;;;17.90;99.90;;;;;;5074421;28;20082;-52
2023/06/12 07:54:01;;;;;;;3.42;2.33;;;17.80;99.90;;;;;;5072580;28;20035;-52
2023/06/12 07:56:27;;;;;;;2.78;2.17;;;17.90;99.90;;;;;;5073248;28;20044;-53
2023/06/12 07:58:52;;;;;;;3.78;2.33;;;18.00;99.90;;;;;;5071976;28;20403;-55
2023/06/12 08:01:18;;;;;;;3.33;2.63;;;18.00;99.90;;;;;;5072810;28;20118;-52
2023/06/12 08:03:45;;;;;;;4.40;2.45;;;18.00;99.90;;;;;;5072829;28;20434;-52
2023/06/12 08:06:13;;;;;;;2.72;1.98;;;17.90;99.90;;;;;;5072961;28;20055;-52
2023/06/12 08:08:46;;;;;;;3.25;2.53;;;18.00;99.90;;;;;;5072336;28;20099;-48
2023/06/12 08:11:13;;;;;;;2.88;2.22;;;18.10;99.90;;;;;;5071745;28;20025;-54
2023/06/12 08:13:38;;;;;;;3.20;2.67;;;18.00;99.90;;;;;;5071309;28;20037;-51
2023/06/12 08:16:05;;;;;;;5.15;2.53;;;17.90;99.90;;;;;;5073267;28;20380;-51
2023/06/12 08:18:30;;;;;;;2.67;2.17;;;17.80;99.90;;;;;;5053654;28;20118;-50
2023/06/12 08:20:59;;;;;;;4.80;3.10;;;17.90;99.90;;;;;;5072387;28;20056;-52
2023/06/12 08:23:25;;;;;;;3.83;2.55;;;17.90;99.90;;;;;;5072981;28;20029;-52
2023/06/12 08:25:51;;;;;;;6.85;2.53;;;17.90;99.90;;;;;;5072377;28;20032;-53
2023/06/12 08:28:16;;;;;;;3.42;2.45;;;18.20;99.90;;;;;;5073307;28;20031;-48
2023/06/12 08:30:42;;;;;;;4.82;3.03;;;18.20;99.90;;;;;;5054161;28;20041;-57
2023/06/12 08:33:08;;;;;;;4.60;3.05;;;18.20;99.90;;;;;;5072459;28;20033;-54
2023/06/12 08:35:36;;;;;;;3.72;2.63;;;18.10;99.90;;;;;;5072652;28;20025;-51
2023/06/12 08:38:02;;;;;;;4.10;2.78;;;18.00;99.90;;;;;;5069559;28;20028;-53
2023/06/12 08:40:29;;;;;;;5.15;2.78;;;18.20;99.90;;;;;;5053756;28;20033;-49
2023/06/12 08:42:55;;;;;;;5.45;3.05;;;18.30;99.90;;;;;;5072339;28;20078;-51
2023/06/12 08:45:26;;;;;;;7.00;2.95;;;18.20;99.90;;;;;;5072667;28;20422;-51
2023/06/12 08:47:52;;;;;;;6.45;3.30;;;18.30;99.90;;;;;;5073328;28;20377;-50
2023/06/12 08:50:19;;;;;;;4.53;3.75;;;18.40;99.90;;;;;;5072766;28;20422;-49
2023/06/12 08:52:50;;;;;;;4.32;3.25;;;18.40;99.90;;;;;;5073084;28;20103;-49
2023/06/12 08:55:16;;;;;;;6.45;3.55;;;18.40;99.90;;;;;;5053972;28;20058;-48
2023/06/12 08:57:43;;;;;;;4.10;3.10;;;18.40;99.90;;;;;;5087127;28;20052;-52
2023/06/12 09:00:13;;;;;;;4.10;3.05;;;18.70;99.90;;;;;;5072789;28;20021;-50
2023/06/12 09:02:49;;;;;;;5.28;2.97;;;18.70;99.90;;;;;;5072475;28;20028;-50
2023/06/12 09:05:17;;;;;;;4.97;2.90;;;18.70;99.90;;;;;;5072898;28;20371;-52
2023/06/12 09:07:47;;;;;;;5.55;2.80;;;18.70;99.90;;;;;;5072445;28;20040;-52
2023/06/12 09:10:14;;;;;;;4.38;2.92;;;18.70;99.90;;;;;;5053642;28;20100;-53
2023/06/12 09:12:43;;;;;;;4.97;3.30;;;18.70;99.90;;;;;;5072567;28;20039;-49
2023/06/12 09:15:10;;;;;;;6.57;4.65;;;18.80;99.90;;;;;;5072351;28;20037;-51
2023/06/12 09:17:37;;;;;;;4.45;3.70;;;18.80;99.90;;;;;;5053295;28;20062;-49
2023/06/12 09:20:05;;;;;;;3.33;2.78;;;18.70;99.90;;;;;;5072570;28;20052;-51
2023/06/12 09:22:31;;;;;;;6.10;2.97;;;18.90;99.90;;;;;;5072402;28;20039;-49
2023/06/12 09:24:57;;;;;;;5.43;3.10;;;18.80;99.90;;;;;;5087158;28;20059;-49
2023/06/12 09:27:23;;;;;;;3.35;2.67;;;18.60;99.90;;;;;;5072135;28;20029;-53
2023/06/12 09:29:48;;;;;;;4.47;3.22;;;18.70;99.90;;;;;;5072298;28;20028;-50
2023/06/12 09:32:15;;;;;;;4.57;3.13;;;18.80;99.90;;;;;;5072252;28;20103;-49
2023/06/12 09:34:50;;;;;;;4.22;2.70;;;19.10;99.90;;;;;;5072306;28;20028;-52
2023/06/12 09:37:16;;;;;;;3.90;2.67;;;19.00;99.90;;;;;;5072143;28;20444;-52
2023/06/12 09:39:42;;;;;;;3.97;3.00;;;18.90;99.90;;;;;;5072488;28;20028;-50
2023/06/12 09:42:10;;;;;;;4.43;3.58;;;18.70;99.90;;;;;;5072297;28;20036;-48
2023/06/12 09:44:38;;;;;;;4.60;3.50;;;18.70;99.90;;;;;;5053448;28;20476;-50
2023/06/12 09:47:05;;;;;;;3.67;2.80;;;18.70;99.90;;;;;;5072172;28;20485;-52
2023/06/12 09:49:33;;;;;;;4.78;2.92;;;18.70;99.90;;;;;;5072227;28;20383;-50
2023/06/12 09:52:02;;;;;;;4.38;3.28;;;18.90;99.90;;;;;;5072137;28;20115;-50
2023/06/12 09:54:29;;;;;;;4.72;3.35;;;18.90;99.90;;;;;;5052939;28;20044;-53
2023/06/12 09:56:58;;;;;;;3.42;3.13;;;18.90;99.90;;;;;;5071662;28;20101;-48
2023/06/12 09:59:27;;;;;;;3.70;3.15;;;19.10;99.90;;;;;;5071953;28;20392;-50
2023/06/12 10:01:59;;;;;;;5.13;3.03;;;19.20;99.90;;;;;;5053173;28;20070;-49
2023/06/12 10:04:25;;;;;;;;;;;19.30;99.90;;;;;;5072189;28;20357;-53
2023/06/12 10:06:56;;;;;;;2.97;2.70;;;19.40;99.90;;;;;;5071875;28;19912;-51
2023/06/12 10:09:22;;;;;;;4.40;3.33;;;19.30;99.90;;;;;;5052734;28;20033;-50
2023/06/12 10:11:49;;;;;;;2.90;2.47;;;19.30;99.90;;;;;;5036069;28;20396;-49
2023/06/12 10:14:17;;;;;;;3.72;3.20;;;19.10;99.90;;;;;;5071481;28;20087;-49
2023/06/12 10:16:45;;;;;;;4.25;3.08;;;19.00;99.90;;;;;;5070383;28;20061;-51
2023/06/12 10:19:12;;;;;;;3.72;2.67;;;19.10;99.90;;;;;;5071589;28;20027;-48
2023/06/12 10:21:40;;;;;;;3.22;2.80;;;19.00;99.90;;;;;;5069411;28;20037;-53
2023/06/12 10:24:06;;;;;;;5.22;3.50;;;18.90;99.90;;;;;;5071545;28;20507;-51
2023/06/12 10:26:32;;;;;;;3.42;2.85;;;19.80;99.90;;;;;;5026548;28;20045;-50
2023/06/12 10:28:58;;;;;;;3.40;2.85;;;19.10;99.90;;;;;;5072934;28;20089;-54
2023/06/12 10:31:27;;;;;;;3.25;2.85;;;19.10;99.90;;;;;;5035980;28;20037;-50
2023/06/12 10:33:57;;;;;;;5.78;2.90;;;19.20;99.90;;;;;;5074842;28;20111;-52
2023/06/12 10:36:23;;;;;;;3.85;3.10;;;19.20;99.90;;;;;;5074834;28;20020;-50
2023/06/12 10:38:49;;;;;;;4.30;2.85;;;19.30;99.90;;;;;;5056114;28;20169;-51
2023/06/12 10:41:31;;;;;;;4.32;2.90;;;;;;;;;;5075073;28;20032;-50
2023/06/12 10:43:57;;;;;;;3.72;2.85;;;;;;;;;;5073580;28;20379;-48
2023/06/12 10:46:23;;;;;;;3.80;3.20;;;;;;;;;;5072486;28;20040;-47
2023/06/12 10:48:49;;;;;;;4.15;3.10;;;20.60;99.90;;;;;;5072554;28;20036;-48
2023/06/12 10:51:15;;;;;;;3.72;3.00;;;20.00;99.90;;;;;;5081025;28;20156;-48
2023/06/12 10:53:44;;;;;;;5.57;3.42;;;20.00;99.90;;;;;;5055690;28;20085;-54
2023/06/12 10:56:10;;;;;;;3.35;2.80;;;20.10;99.90;;;;;;5074035;28;20052;-50
2023/06/12 10:58:38;;;;;;;3.70;3.00;;;20.00;99.90;;;;;;5074481;28;20459;-49
2023/06/12 11:01:12;;;;;;;3.35;3.00;;;20.20;99.90;;;;;;5076643;28;21916;-48
2023/06/12 11:03:42;;;;;;;2.97;2.65;;;20.20;99.90;;;;;;5077524;28;20039;-48
2023/06/12 11:06:20;;;;;;;2.90;2.40;;;20.20;99.90;;;;;;5073315;28;20048;-51
2023/06/12 11:08:47;;;;;;;3.53;2.85;;;20.40;99.90;;;;;;5071997;28;20745;-49
2023/06/12 11:11:14;;;;;;;3.75;2.75;;;20.30;99.90;;;;;;5073083;28;20029;-48
2023/06/12 11:13:41;;;;;;;3.33;2.67;;;20.20;99.90;;;;;;5074871;28;20059;-49
2023/06/12 11:16:07;;;;;;;2.70;2.30;;;20.20;99.90;;;;;;5074602;28;20030;-50
2023/06/12 11:18:32;;;;;;;3.50;2.53;;;20.20;99.90;;;;;;5074073;28;20108;-49
2023/06/12 11:20:58;;;;;;;6.80;2.65;;;20.20;99.90;;;;;;5073849;28;20051;-51
2023/06/12 11:23:25;;;;;;;3.45;2.78;;;20.20;99.90;;;;;;5055217;28;20036;-50
2023/06/12 11:25:53;;;;;;;2.85;2.42;;;20.10;99.90;;;;;;5046435;28;20484;-51
2023/06/12 11:28:25;;;;;;;3.58;3.08;;;20.10;99.90;;;;;;5074251;28;20032;-51
2023/06/12 11:30:56;;;;;;;3.10;2.80;;;20.20;99.90;;;;;;5073908;28;20048;-50
2023/06/12 11:33:22;;;;;;;3.38;2.60;;;20.20;99.90;;;;;;5074625;28;20388;-57
2023/06/12 11:35:50;;;;;;;4.20;3.10;;;20.40;99.90;;;;;;5074237;28;20028;-50
2023/06/12 11:38:20;;;;;;;3.85;2.40;;;20.20;99.90;;;;;;5074372;28;20085;-51
2023/06/12 11:40:48;;;;;;;5.65;3.17;;;19.90;99.90;;;;;;5073633;28;20028;-50
2023/06/12 11:43:18;;;;;;;3.47;2.65;;;20.00;99.90;;;;;;5055356;28;20033;-53
2023/06/12 11:45:45;;;;;;;3.50;3.20;;;19.80;99.90;;;;;;5054186;28;20139;-45
2023/06/12 11:48:16;;;;;;;4.00;2.83;;;19.80;99.90;;;;;;5073517;28;20520;-48
2023/06/12 11:50:43;;;;;;;3.88;3.10;;;20.10;99.90;;;;;;5073268;28;20029;-48
2023/06/12 11:53:10;;;;;;;3.72;3.08;;;20.20;99.90;;;;;;5070393;28;20039;-49
2023/06/12 11:55:36;;;;;;;3.35;2.88;;;20.40;99.90;;;;;;5073374;28;20016;-50
2023/06/12 11:58:03;;;;;;;4.00;3.10;;;20.50;99.90;;;;;;5073059;28;20020;-48
2023/06/12 12:00:32;;;;;;;2.65;2.40;;;20.60;99.90;;;;;;5070357;28;20029;-49
2023/06/12 12:03:01;;;;;;;3.72;2.50;;;20.70;99.90;;;;;;5073084;28;20460;-48
2023/06/12 12:05:31;;;;;;;3.38;2.85;;;20.70;99.90;;;;;;5073449;28;20047;-49
2023/06/12 12:07:59;;;;;;;2.75;2.50;;;20.70;99.90;;;;;;5073195;28;20033;-54
2023/06/12 12:10:27;;;;;;;3.15;2.42;;;20.60;99.90;;;;;;5073437;28;20052;-51
2023/06/12 12:13:00;;;;;;;7.00;2.60;;;20.50;99.90;;;;;;5073085;28;20116;-50
2023/06/12 12:15:29;;;;;;;3.30;2.78;;;20.50;99.90;;;;;;5051091;28;20033;-49
2023/06/12 12:17:55;;;;;;;2.35;2.15;;;20.50;99.90;;;;;;5016623;28;20063;-50
2023/06/12 12:20:23;;;;;;;3.63;2.60;;;20.50;99.90;;;;;;5017125;28;20033;-51
2023/06/12 12:22:53;;;;;;;3.47;2.45;;;20.60;99.90;;;;;;5017045;28;20043;-48
2023/06/12 12:25:25;;;;;;;3.33;2.63;;;20.90;99.90;;;;;;5047530;28;20033;-50
2023/06/12 12:27:51;;;;;;;2.95;2.33;;;21.00;99.90;;;;;;5050449;28;20068;-53
2023/06/12 12:30:19;;;;;;;3.50;2.55;;;21.00;99.90;;;;;;5030349;28;20041;-53
2023/06/12 12:32:47;;;;;;;4.32;2.55;;;21.10;99.90;;;;;;5030644;28;20044;-50
2023/06/12 12:35:15;;;;;;;5.43;2.83;;;21.10;99.90;;;;;;4974995;28;20136;-52
2023/06/12 12:37:41;;;;;;;2.90;2.25;;;21.20;99.90;;;;;;4991521;28;20062;-50
2023/06/12 12:40:10;;;;;;;5.40;2.50;;;21.10;99.90;;;;;;4975059;28;20047;-51
2023/06/12 12:42:37;;;;;;;3.03;2.28;;;20.90;99.90;;;;;;4991151;28;20042;-52
2023/06/12 12:45:04;;;;;;;3.65;2.63;;;20.80;99.90;;;;;;4991140;28;20031;-54
2023/06/12 12:47:30;;;;;;;4.65;2.28;;;20.90;99.90;;;;;;5010071;28;20088;-54
2023/06/12 12:49:56;;;;;;;3.08;2.50;;;20.90;99.90;;;;;;5010849;28;20042;-51